Minneapolis, Minnesota
Traffic Map
Current Weather Conditions
Minneapolis, Minnesota
Scattered Clouds
Scattered Clouds
46°
Feels Like: 43°
Wind Chill: 43° Ceiling: Unl
Heat Index: 46° Visibility: 10mi
Dew Point: 29° Wind: 6mph
Humidity: 51% Direction: 350° (N)
Pressure: 30.41in Gusts: 0mph
Raw Report DataKMSP 231753Z 35005KT 10SM SCT037 08/M02 A3041 RMK AO2 SLP303 T00781017 10083 20000 50001
Traffic Incident Summary
Active as of:
Severity:
Category:
InformationThere was an issue retrieving the traffic information for this location. Please try a different location or try again shortly.
Advertisements